sensor_id;sensor_type;location;lat;lon;timestamp;pressure;altitude;pressure_sealevel;temperature
76713;BMP280;65640;43.154;25.658;2023-04-01T00:00:15;99715.69;;;9.00
76713;BMP280;65640;43.154;25.658;2023-04-01T00:02:41;99707.56;;;9.01
76713;BMP280;65640;43.154;25.658;2023-04-01T00:05:07;99698.75;;;8.92
76713;BMP280;65640;43.154;25.658;2023-04-01T00:07:32;99689.88;;;8.93
76713;BMP280;65640;43.154;25.658;2023-04-01T00:09:58;99684.91;;;8.97
76713;BMP280;65640;43.154;25.658;2023-04-01T00:12:23;99678.84;;;9.01
76713;BMP280;65640;43.154;25.658;2023-04-01T00:14:50;99680.56;;;9.11
76713;BMP280;65640;43.154;25.658;2023-04-01T00:17:16;99686.03;;;9.14
76713;BMP280;65640;43.154;25.658;2023-04-01T00:19:41;99677.69;;;9.12
76713;BMP280;65640;43.154;25.658;2023-04-01T00:22:07;99685.50;;;9.17
76713;BMP280;65640;43.154;25.658;2023-04-01T00:24:37;99686.72;;;9.25
76713;BMP280;65640;43.154;25.658;2023-04-01T00:27:02;99678.88;;;9.25
76713;BMP280;65640;43.154;25.658;2023-04-01T00:29:28;99670.44;;;9.33
76713;BMP280;65640;43.154;25.658;2023-04-01T00:31:56;99674.53;;;9.39
76713;BMP280;65640;43.154;25.658;2023-04-01T00:34:22;99662.13;;;9.50
76713;BMP280;65640;43.154;25.658;2023-04-01T00:36:49;99660.34;;;9.69
76713;BMP280;65640;43.154;25.658;2023-04-01T00:39:15;99645.81;;;9.82
76713;BMP280;65640;43.154;25.658;2023-04-01T00:41:40;99642.28;;;9.91
76713;BMP280;65640;43.154;25.658;2023-04-01T00:44:36;99643.69;;;10.02
76713;BMP280;65640;43.154;25.658;2023-04-01T00:47:02;99633.16;;;10.07
76713;BMP280;65640;43.154;25.658;2023-04-01T00:49:37;99635.41;;;10.14
76713;BMP280;65640;43.154;25.658;2023-04-01T00:52:06;99640.25;;;10.21
76713;BMP280;65640;43.154;25.658;2023-04-01T00:54:33;99631.88;;;10.24
76713;BMP280;65640;43.154;25.658;2023-04-01T00:57:06;99627.69;;;10.23
76713;BMP280;65640;43.154;25.658;2023-04-01T00:59:40;99630.59;;;10.21
76713;BMP280;65640;43.154;25.658;2023-04-01T01:02:08;99629.16;;;10.29
76713;BMP280;65640;43.154;25.658;2023-04-01T01:04:35;99625.41;;;10.35
76713;BMP280;65640;43.154;25.658;2023-04-01T01:12:24;99608.69;;;10.50
76713;BMP280;65640;43.154;25.658;2023-04-01T01:20:27;99619.63;;;10.19
76713;BMP280;65640;43.154;25.658;2023-04-01T01:28:47;99609.19;;;10.00
76713;BMP280;65640;43.154;25.658;2023-04-01T01:36:40;99596.25;;;10.09
76713;BMP280;65640;43.154;25.658;2023-04-01T01:39:08;99596.56;;;10.07
76713;BMP280;65640;43.154;25.658;2023-04-01T01:41:35;99593.69;;;10.23
76713;BMP280;65640;43.154;25.658;2023-04-01T01:44:03;99594.78;;;10.35
76713;BMP280;65640;43.154;25.658;2023-04-01T01:46:31;99595.38;;;10.32
76713;BMP280;65640;43.154;25.658;2023-04-01T01:48:57;99597.28;;;10.27
76713;BMP280;65640;43.154;25.658;2023-04-01T01:51:26;99598.34;;;10.26
76713;BMP280;65640;43.154;25.658;2023-04-01T01:53:52;99588.63;;;10.13
76713;BMP280;65640;43.154;25.658;2023-04-01T01:56:20;99599.28;;;10.16
76713;BMP280;65640;43.154;25.658;2023-04-01T01:58:51;99596.06;;;10.05
76713;BMP280;65640;43.154;25.658;2023-04-01T02:01:23;99591.97;;;9.99
76713;BMP280;65640;43.154;25.658;2023-04-01T02:03:51;99593.97;;;9.89
76713;BMP280;65640;43.154;25.658;2023-04-01T02:06:20;99589.69;;;9.93
76713;BMP280;65640;43.154;25.658;2023-04-01T02:09:02;99587.84;;;9.93
76713;BMP280;65640;43.154;25.658;2023-04-01T02:14:07;99580.13;;;9.88
76713;BMP280;65640;43.154;25.658;2023-04-01T02:16:40;99581.16;;;9.87
76713;BMP280;65640;43.154;25.658;2023-04-01T02:19:09;99581.44;;;9.86
76713;BMP280;65640;43.154;25.658;2023-04-01T02:21:36;99581.03;;;9.79
76713;BMP280;65640;43.154;25.658;2023-04-01T02:24:05;99571.34;;;9.79
76713;BMP280;65640;43.154;25.658;2023-04-01T02:26:32;99575.03;;;9.78
76713;BMP280;65640;43.154;25.658;2023-04-01T02:28:59;99574.53;;;9.76
76713;BMP280;65640;43.154;25.658;2023-04-01T02:31:25;99568.25;;;9.77
76713;BMP280;65640;43.154;25.658;2023-04-01T02:33:50;99566.22;;;9.74
76713;BMP280;65640;43.154;25.658;2023-04-01T02:36:17;99543.75;;;9.73
76713;BMP280;65640;43.154;25.658;2023-04-01T02:38:44;99544.31;;;9.70
76713;BMP280;65640;43.154;25.658;2023-04-01T02:41:11;99544.59;;;9.69
76713;BMP280;65640;43.154;25.658;2023-04-01T02:43:36;99536.75;;;9.69
76713;BMP280;65640;43.154;25.658;2023-04-01T02:46:02;99540.16;;;9.69
76713;BMP280;65640;43.154;25.658;2023-04-01T02:48:28;99541.47;;;9.66
76713;BMP280;65640;43.154;25.658;2023-04-01T02:50:54;99543.53;;;9.70
76713;BMP280;65640;43.154;25.658;2023-04-01T02:53:19;99539.84;;;9.71
76713;BMP280;65640;43.154;25.658;2023-04-01T02:55:45;99539.16;;;9.65
76713;BMP280;65640;43.154;25.658;2023-04-01T02:58:11;99535.47;;;9.66
76713;BMP280;65640;43.154;25.658;2023-04-01T03:00:37;99533.72;;;9.61
76713;BMP280;65640;43.154;25.658;2023-04-01T03:03:02;99534.13;;;9.50
76713;BMP280;65640;43.154;25.658;2023-04-01T03:05:28;99535.13;;;9.54
76713;BMP280;65640;43.154;25.658;2023-04-01T03:07:54;99527.84;;;9.51
76713;BMP280;65640;43.154;25.658;2023-04-01T03:10:19;99531.47;;;9.55
76713;BMP280;65640;43.154;25.658;2023-04-01T03:12:45;99539.31;;;9.55
76713;BMP280;65640;43.154;25.658;2023-04-01T03:15:12;99538.81;;;9.53
76713;BMP280;65640;43.154;25.658;2023-04-01T03:17:40;99537.66;;;9.59
76713;BMP280;65640;43.154;25.658;2023-04-01T03:20:06;99530.19;;;9.52
76713;BMP280;65640;43.154;25.658;2023-04-01T03:22:34;99536.97;;;9.53
76713;BMP280;65640;43.154;25.658;2023-04-01T03:25:01;99527.22;;;9.40
76713;BMP280;65640;43.154;25.658;2023-04-01T03:27:26;99523.78;;;9.45
76713;BMP280;65640;43.154;25.658;2023-04-01T03:29:51;99529.78;;;9.45
76713;BMP280;65640;43.154;25.658;2023-04-01T03:32:17;99530.09;;;9.39
76713;BMP280;65640;43.154;25.658;2023-04-01T03:34:42;99526.00;;;9.33
76713;BMP280;65640;43.154;25.658;2023-04-01T03:37:08;99533.34;;;9.31
76713;BMP280;65640;43.154;25.658;2023-04-01T03:39:33;99536.03;;;9.25
76713;BMP280;65640;43.154;25.658;2023-04-01T03:42:00;99535.41;;;9.34
76713;BMP280;65640;43.154;25.658;2023-04-01T03:44:25;99525.50;;;9.31
76713;BMP280;65640;43.154;25.658;2023-04-01T03:46:51;99524.09;;;9.38
76713;BMP280;65640;43.154;25.658;2023-04-01T03:49:16;99524.41;;;9.37
76713;BMP280;65640;43.154;25.658;2023-04-01T03:51:43;99528.00;;;9.41
76713;BMP280;65640;43.154;25.658;2023-04-01T03:54:09;99529.47;;;9.28
76713;BMP280;65640;43.154;25.658;2023-04-01T03:56:35;99532.38;;;9.26
76713;BMP280;65640;43.154;25.658;2023-04-01T03:59:03;99539.06;;;9.33
76713;BMP280;65640;43.154;25.658;2023-04-01T04:01:28;99540.91;;;9.32
76713;BMP280;65640;43.154;25.658;2023-04-01T04:03:55;99530.25;;;9.29
76713;BMP280;65640;43.154;25.658;2023-04-01T04:06:22;99528.84;;;9.17
76713;BMP280;65640;43.154;25.658;2023-04-01T04:08:48;99518.84;;;9.24
76713;BMP280;65640;43.154;25.658;2023-04-01T04:11:14;99522.97;;;9.25
76713;BMP280;65640;43.154;25.658;2023-04-01T04:13:41;99516.06;;;9.16
76713;BMP280;65640;43.154;25.658;2023-04-01T04:16:07;99512.06;;;9.23
76713;BMP280;65640;43.154;25.658;2023-04-01T04:18:33;99517.69;;;9.31
76713;BMP280;65640;43.154;25.658;2023-04-01T04:20:59;99514.59;;;9.29
76713;BMP280;65640;43.154;25.658;2023-04-01T04:23:24;99515.22;;;9.39
76713;BMP280;65640;43.154;25.658;2023-04-01T04:28:19;99523.19;;;9.48
76713;BMP280;65640;43.154;25.658;2023-04-01T04:30:45;99512.44;;;9.49
76713;BMP280;65640;43.154;25.658;2023-04-01T04:33:10;99521.06;;;9.50
76713;BMP280;65640;43.154;25.658;2023-04-01T04:35:36;99518.25;;;9.65
76713;BMP280;65640;43.154;25.658;2023-04-01T04:38:01;99514.50;;;9.71
76713;BMP280;65640;43.154;25.658;2023-04-01T04:40:26;99516.72;;;9.64
76713;BMP280;65640;43.154;25.658;2023-04-01T04:42:52;99520.38;;;9.63
76713;BMP280;65640;43.154;25.658;2023-04-01T04:45:17;99516.56;;;9.74
76713;BMP280;65640;43.154;25.658;2023-04-01T04:47:43;99511.88;;;9.71
76713;BMP280;65640;43.154;25.658;2023-04-01T04:50:08;99514.34;;;9.81
76713;BMP280;65640;43.154;25.658;2023-04-01T04:52:34;99517.53;;;9.78
76713;BMP280;65640;43.154;25.658;2023-04-01T04:54:59;99504.88;;;9.85
76713;BMP280;65640;43.154;25.658;2023-04-01T04:57:25;99506.81;;;9.93
76713;BMP280;65640;43.154;25.658;2023-04-01T04:59:51;99506.88;;;10.07
76713;BMP280;65640;43.154;25.658;2023-04-01T05:02:16;99505.06;;;10.07
76713;BMP280;65640;43.154;25.658;2023-04-01T05:04:41;99503.91;;;10.14
76713;BMP280;65640;43.154;25.658;2023-04-01T05:07:07;99504.28;;;10.21
76713;BMP280;65640;43.154;25.658;2023-04-01T05:09:32;99498.38;;;10.29
76713;BMP280;65640;43.154;25.658;2023-04-01T05:11:59;99491.31;;;10.29
76713;BMP280;65640;43.154;25.658;2023-04-01T05:14:24;99497.91;;;10.40
76713;BMP280;65640;43.154;25.658;2023-04-01T05:16:50;99492.00;;;10.48
76713;BMP280;65640;43.154;25.658;2023-04-01T05:19:15;99490.44;;;10.61
76713;BMP280;65640;43.154;25.658;2023-04-01T05:21:41;99487.63;;;10.71
76713;BMP280;65640;43.154;25.658;2023-04-01T05:24:09;99491.72;;;10.77
76713;BMP280;65640;43.154;25.658;2023-04-01T05:26:35;99492.19;;;10.79
76713;BMP280;65640;43.154;25.658;2023-04-01T05:29:02;99494.81;;;10.79
76713;BMP280;65640;43.154;25.658;2023-04-01T05:31:28;99488.88;;;10.87
76713;BMP280;65640;43.154;25.658;2023-04-01T05:33:53;99484.81;;;10.95
76713;BMP280;65640;43.154;25.658;2023-04-01T05:36:19;99485.41;;;11.14
76713;BMP280;65640;43.154;25.658;2023-04-01T05:38:44;99491.78;;;11.36
76713;BMP280;65640;43.154;25.658;2023-04-01T05:41:14;99488.47;;;11.52
76713;BMP280;65640;43.154;25.658;2023-04-01T05:43:41;99472.25;;;11.64
76713;BMP280;65640;43.154;25.658;2023-04-01T05:46:06;99469.97;;;11.71
76713;BMP280;65640;43.154;25.658;2023-04-01T05:48:33;99474.06;;;11.86
76713;BMP280;65640;43.154;25.658;2023-04-01T05:51:00;99470.72;;;11.94
76713;BMP280;65640;43.154;25.658;2023-04-01T05:53:26;99473.53;;;12.06
76713;BMP280;65640;43.154;25.658;2023-04-01T05:55:51;99472.53;;;12.24
76713;BMP280;65640;43.154;25.658;2023-04-01T05:58:16;99474.59;;;12.44
76713;BMP280;65640;43.154;25.658;2023-04-01T06:00:42;99481.88;;;12.56
76713;BMP280;65640;43.154;25.658;2023-04-01T06:03:07;99475.72;;;12.61
76713;BMP280;65640;43.154;25.658;2023-04-01T06:05:43;99474.16;;;12.68
76713;BMP280;65640;43.154;25.658;2023-04-01T06:08:14;99470.00;;;12.67
76713;BMP280;65640;43.154;25.658;2023-04-01T06:22:13;99473.44;;;12.85
76713;BMP280;65640;43.154;25.658;2023-04-01T06:24:50;99467.38;;;12.93
76713;BMP280;65640;43.154;25.658;2023-04-01T06:30:02;99461.25;;;13.06
76713;BMP280;65640;43.154;25.658;2023-04-01T06:43:59;99471.72;;;13.32
76713;BMP280;65640;43.154;25.658;2023-04-01T06:47:41;99471.22;;;13.38
76713;BMP280;65640;43.154;25.658;2023-04-01T06:52:31;99463.50;;;13.51
76713;BMP280;65640;43.154;25.658;2023-04-01T06:55:35;99451.84;;;13.60
76713;BMP280;65640;43.154;25.658;2023-04-01T06:58:04;99464.38;;;13.72
76713;BMP280;65640;43.154;25.658;2023-04-01T07:00:43;99476.56;;;13.76
76713;BMP280;65640;43.154;25.658;2023-04-01T07:06:20;99452.72;;;13.81
76713;BMP280;65640;43.154;25.658;2023-04-01T07:08:48;99447.47;;;13.81
76713;BMP280;65640;43.154;25.658;2023-04-01T07:11:31;99450.22;;;13.85
76713;BMP280;65640;43.154;25.658;2023-04-01T07:14:04;99448.03;;;13.96
76713;BMP280;65640;43.154;25.658;2023-04-01T07:16:39;99449.53;;;14.05
76713;BMP280;65640;43.154;25.658;2023-04-01T07:19:12;99447.63;;;14.14
76713;BMP280;65640;43.154;25.658;2023-04-01T07:21:44;99448.88;;;14.17
76713;BMP280;65640;43.154;25.658;2023-04-01T07:24:17;99447.09;;;14.21
76713;BMP280;65640;43.154;25.658;2023-04-01T07:26:55;99455.16;;;14.24
76713;BMP280;65640;43.154;25.658;2023-04-01T07:29:21;99460.41;;;14.24
76713;BMP280;65640;43.154;25.658;2023-04-01T07:32:16;99450.97;;;14.23
76713;BMP280;65640;43.154;25.658;2023-04-01T07:37:15;99418.91;;;14.01
76713;BMP280;65640;43.154;25.658;2023-04-01T07:40:20;99402.00;;;14.02
76713;BMP280;65640;43.154;25.658;2023-04-01T07:42:53;99392.94;;;14.20
76713;BMP280;65640;43.154;25.658;2023-04-01T07:45:30;99402.41;;;14.42
76713;BMP280;65640;43.154;25.658;2023-04-01T07:50:52;99406.56;;;14.84
76713;BMP280;65640;43.154;25.658;2023-04-01T07:53:36;99408.56;;;14.99
76713;BMP280;65640;43.154;25.658;2023-04-01T07:56:06;99401.16;;;15.13
76713;BMP280;65640;43.154;25.658;2023-04-01T08:02:25;99390.66;;;15.62
76713;BMP280;65640;43.154;25.658;2023-04-01T08:09:51;99371.31;;;16.50
76713;BMP280;65640;43.154;25.658;2023-04-01T08:12:31;99361.16;;;16.64
76713;BMP280;65640;43.154;25.658;2023-04-01T08:15:04;99365.34;;;16.81
76713;BMP280;65640;43.154;25.658;2023-04-01T08:17:52;99355.03;;;16.91
76713;BMP280;65640;43.154;25.658;2023-04-01T08:26:10;99346.00;;;18.32
76713;BMP280;65640;43.154;25.658;2023-04-01T08:28:52;99332.03;;;18.77
76713;BMP280;65640;43.154;25.658;2023-04-01T08:34:05;99326.72;;;18.77
76713;BMP280;65640;43.154;25.658;2023-04-01T08:36:38;99324.34;;;18.94
76713;BMP280;65640;43.154;25.658;2023-04-01T08:39:37;99315.75;;;19.27
76713;BMP280;65640;43.154;25.658;2023-04-01T08:55:51;99301.78;;;19.60
76713;BMP280;65640;43.154;25.658;2023-04-01T09:01:26;99318.38;;;19.87
76713;BMP280;65640;43.154;25.658;2023-04-01T09:04:18;99314.06;;;20.09
76713;BMP280;65640;43.154;25.658;2023-04-01T09:07:03;99316.63;;;20.35
76713;BMP280;65640;43.154;25.658;2023-04-01T09:09:53;99312.09;;;20.39
76713;BMP280;65640;43.154;25.658;2023-04-01T09:12:41;99320.56;;;20.48
76713;BMP280;65640;43.154;25.658;2023-04-01T09:34:26;99285.31;;;20.65
76713;BMP280;65640;43.154;25.658;2023-04-01T09:37:34;99283.19;;;20.85
76713;BMP280;65640;43.154;25.658;2023-04-01T09:43:21;99278.66;;;20.85
76713;BMP280;65640;43.154;25.658;2023-04-01T09:48:55;99272.75;;;21.24
76713;BMP280;65640;43.154;25.658;2023-04-01T09:54:09;99271.38;;;21.65
76713;BMP280;65640;43.154;25.658;2023-04-01T09:57:02;99269.94;;;21.92
76713;BMP280;65640;43.154;25.658;2023-04-01T10:44:25;99187.63;;;21.52
76713;BMP280;65640;43.154;25.658;2023-04-01T10:52:29;99159.41;;;21.12
76713;BMP280;65640;43.154;25.658;2023-04-01T10:55:24;99145.66;;;21.07
76713;BMP280;65640;43.154;25.658;2023-04-01T11:29:01;99081.34;;;23.12
76713;BMP280;65640;43.154;25.658;2023-04-01T11:37:24;99070.28;;;23.58
76713;BMP280;65640;43.154;25.658;2023-04-01T11:48:36;99056.44;;;24.37
76713;BMP280;65640;43.154;25.658;2023-04-01T11:54:19;99052.88;;;24.74
76713;BMP280;65640;43.154;25.658;2023-04-01T12:10:38;99022.28;;;24.75
76713;BMP280;65640;43.154;25.658;2023-04-01T12:21:06;99023.94;;;23.37
76713;BMP280;65640;43.154;25.658;2023-04-01T12:32:43;98993.91;;;22.71
76713;BMP280;65640;43.154;25.658;2023-04-01T12:35:18;99020.19;;;21.82
76713;BMP280;65640;43.154;25.658;2023-04-01T12:38:14;99017.94;;;21.53
76713;BMP280;65640;43.154;25.658;2023-04-01T12:46:19;99013.34;;;21.81
76713;BMP280;65640;43.154;25.658;2023-04-01T12:57:09;98998.94;;;21.40
76713;BMP280;65640;43.154;25.658;2023-04-01T13:03:01;98992.03;;;21.81
76713;BMP280;65640;43.154;25.658;2023-04-01T13:11:50;99006.81;;;20.59
76713;BMP280;65640;43.154;25.658;2023-04-01T13:16:27;98998.03;;;20.51
76713;BMP280;65640;43.154;25.658;2023-04-01T13:19:56;98985.91;;;20.50
76713;BMP280;65640;43.154;25.658;2023-04-01T13:27:45;98984.16;;;20.07
76713;BMP280;65640;43.154;25.658;2023-04-01T13:38:54;98982.59;;;19.91
76713;BMP280;65640;43.154;25.658;2023-04-01T14:00:30;98971.84;;;18.49
76713;BMP280;65640;43.154;25.658;2023-04-01T14:06:46;98970.47;;;18.29
76713;BMP280;65640;43.154;25.658;2023-04-01T14:09:14;98968.16;;;18.24
76713;BMP280;65640;43.154;25.658;2023-04-01T14:14:40;98977.47;;;18.14
76713;BMP280;65640;43.154;25.658;2023-04-01T14:17:27;98974.47;;;18.16
76713;BMP280;65640;43.154;25.658;2023-04-01T14:22:40;98970.63;;;18.13
76713;BMP280;65640;43.154;25.658;2023-04-01T14:28:37;98950.91;;;18.07
76713;BMP280;65640;43.154;25.658;2023-04-01T14:34:09;98961.13;;;17.79
76713;BMP280;65640;43.154;25.658;2023-04-01T14:47:54;99017.88;;;16.40
76713;BMP280;65640;43.154;25.658;2023-04-01T14:50:24;99049.56;;;16.24
76713;BMP280;65640;43.154;25.658;2023-04-01T15:03:30;99185.47;;;15.55
76713;BMP280;65640;43.154;25.658;2023-04-01T15:11:47;99242.00;;;14.37
76713;BMP280;65640;43.154;25.658;2023-04-01T15:14:46;99270.56;;;13.64
76713;BMP280;65640;43.154;25.658;2023-04-01T15:18:33;99282.81;;;13.30
76713;BMP280;65640;43.154;25.658;2023-04-01T15:23:31;99304.41;;;12.89
76713;BMP280;65640;43.154;25.658;2023-04-01T15:31:50;99320.66;;;12.74
76713;BMP280;65640;43.154;25.658;2023-04-01T15:40:20;99287.44;;;12.78
76713;BMP280;65640;43.154;25.658;2023-04-01T15:43:06;99252.22;;;12.71
76713;BMP280;65640;43.154;25.658;2023-04-01T15:56:08;99197.19;;;13.21
76713;BMP280;65640;43.154;25.658;2023-04-01T16:01:52;99161.59;;;13.53
76713;BMP280;65640;43.154;25.658;2023-04-01T16:04:39;99153.72;;;13.73
76713;BMP280;65640;43.154;25.658;2023-04-01T16:10:16;99153.75;;;13.85
76713;BMP280;65640;43.154;25.658;2023-04-01T16:12:58;99150.53;;;14.01
76713;BMP280;65640;43.154;25.658;2023-04-01T16:15:42;99162.97;;;14.12
76713;BMP280;65640;43.154;25.658;2023-04-01T16:21:04;99177.47;;;14.18
76713;BMP280;65640;43.154;25.658;2023-04-01T16:23:36;99179.09;;;14.23
76713;BMP280;65640;43.154;25.658;2023-04-01T16:26:09;99187.63;;;14.20
76713;BMP280;65640;43.154;25.658;2023-04-01T16:28:56;99205.69;;;14.09
76713;BMP280;65640;43.154;25.658;2023-04-01T16:31:34;99227.13;;;13.99
76713;BMP280;65640;43.154;25.658;2023-04-01T16:34:20;99232.38;;;13.78
76713;BMP280;65640;43.154;25.658;2023-04-01T16:36:51;99244.59;;;13.62
76713;BMP280;65640;43.154;25.658;2023-04-01T16:39:37;99244.59;;;13.62
76713;BMP280;65640;43.154;25.658;2023-04-01T16:47:29;99249.97;;;13.36
76713;BMP280;65640;43.154;25.658;2023-04-01T16:50:19;99242.72;;;13.33
76713;BMP280;65640;43.154;25.658;2023-04-01T16:52:57;99253.63;;;13.23
76713;BMP280;65640;43.154;25.658;2023-04-01T16:55:34;99265.38;;;13.17
76713;BMP280;65640;43.154;25.658;2023-04-01T16:58:01;99276.09;;;13.04
76713;BMP280;65640;43.154;25.658;2023-04-01T17:00:41;99287.09;;;12.97
76713;BMP280;65640;43.154;25.658;2023-04-01T17:03:18;99292.50;;;12.92
76713;BMP280;65640;43.154;25.658;2023-04-01T17:06:11;99292.66;;;12.87
76713;BMP280;65640;43.154;25.658;2023-04-01T17:13:55;99287.13;;;12.80
76713;BMP280;65640;43.154;25.658;2023-04-01T17:16:32;99290.06;;;12.78
76713;BMP280;65640;43.154;25.658;2023-04-01T17:30:35;99273.25;;;12.71
76713;BMP280;65640;43.154;25.658;2023-04-01T17:35:54;99275.41;;;12.60
76713;BMP280;65640;43.154;25.658;2023-04-01T17:44:35;99295.94;;;12.41
76713;BMP280;65640;43.154;25.658;2023-04-01T17:52:32;99292.13;;;12.38
76713;BMP280;65640;43.154;25.658;2023-04-01T17:57:51;99302.44;;;12.35
76713;BMP280;65640;43.154;25.658;2023-04-01T18:08:59;99314.94;;;12.29
76713;BMP280;65640;43.154;25.658;2023-04-01T18:11:38;99325.47;;;12.38
76713;BMP280;65640;43.154;25.658;2023-04-01T18:22:21;99370.03;;;12.21
76713;BMP280;65640;43.154;25.658;2023-04-01T18:27:32;99369.72;;;12.13
76713;BMP280;65640;43.154;25.658;2023-04-01T18:32:36;99403.22;;;12.25
76713;BMP280;65640;43.154;25.658;2023-04-01T18:38:11;99416.56;;;12.37
76713;BMP280;65640;43.154;25.658;2023-04-01T18:43:53;99419.91;;;12.46
76713;BMP280;65640;43.154;25.658;2023-04-01T18:47:00;99417.34;;;12.55
76713;BMP280;65640;43.154;25.658;2023-04-01T18:51:59;99431.38;;;12.50
76713;BMP280;65640;43.154;25.658;2023-04-01T18:54:33;99423.19;;;12.52
76713;BMP280;65640;43.154;25.658;2023-04-01T18:57:18;99412.53;;;12.48
76713;BMP280;65640;43.154;25.658;2023-04-01T18:59:50;99416.22;;;12.47
76713;BMP280;65640;43.154;25.658;2023-04-01T19:02:38;99413.13;;;12.45
76713;BMP280;65640;43.154;25.658;2023-04-01T19:07:51;99414.53;;;12.43
76713;BMP280;65640;43.154;25.658;2023-04-01T19:12:46;99408.69;;;12.37
76713;BMP280;65640;43.154;25.658;2023-04-01T19:20:47;99417.59;;;12.28
76713;BMP280;65640;43.154;25.658;2023-04-01T19:26:01;99425.00;;;12.17
76713;BMP280;65640;43.154;25.658;2023-04-01T19:28:51;99436.06;;;12.14
76713;BMP280;65640;43.154;25.658;2023-04-01T19:42:39;99465.59;;;11.97
76713;BMP280;65640;43.154;25.658;2023-04-01T19:51:07;99480.56;;;11.97
76713;BMP280;65640;43.154;25.658;2023-04-01T19:53:44;99481.34;;;11.97
76713;BMP280;65640;43.154;25.658;2023-04-01T19:56:21;99484.75;;;11.98
76713;BMP280;65640;43.154;25.658;2023-04-01T20:04:30;99489.88;;;12.03
76713;BMP280;65640;43.154;25.658;2023-04-01T20:12:47;99497.25;;;12.01
76713;BMP280;65640;43.154;25.658;2023-04-01T20:15:35;99507.75;;;12.01
76713;BMP280;65640;43.154;25.658;2023-04-01T20:18:05;99503.59;;;12.00
76713;BMP280;65640;43.154;25.658;2023-04-01T20:20:37;99502.50;;;12.01
76713;BMP280;65640;43.154;25.658;2023-04-01T20:23:11;99504.50;;;11.95
76713;BMP280;65640;43.154;25.658;2023-04-01T20:26:24;99504.75;;;11.85
76713;BMP280;65640;43.154;25.658;2023-04-01T20:31:41;99521.78;;;11.74
76713;BMP280;65640;43.154;25.658;2023-04-01T20:42:29;99522.13;;;11.50
76713;BMP280;65640;43.154;25.658;2023-04-01T20:48:11;99525.22;;;11.39
76713;BMP280;65640;43.154;25.658;2023-04-01T20:50:41;99521.44;;;11.31
76713;BMP280;65640;43.154;25.658;2023-04-01T20:53:21;99518.31;;;11.20
76713;BMP280;65640;43.154;25.658;2023-04-01T20:56:02;99522.78;;;11.20
76713;BMP280;65640;43.154;25.658;2023-04-01T21:01:24;99519.22;;;11.02
76713;BMP280;65640;43.154;25.658;2023-04-01T21:04:17;99530.59;;;10.98
76713;BMP280;65640;43.154;25.658;2023-04-01T21:09:24;99537.63;;;10.83
76713;BMP280;65640;43.154;25.658;2023-04-01T21:23:20;99547.34;;;10.69
76713;BMP280;65640;43.154;25.658;2023-04-01T21:26:12;99548.00;;;10.61
76713;BMP280;65640;43.154;25.658;2023-04-01T21:34:55;99558.97;;;10.50
76713;BMP280;65640;43.154;25.658;2023-04-01T21:40:16;99558.19;;;10.49
76713;BMP280;65640;43.154;25.658;2023-04-01T21:45:57;99554.31;;;10.46
76713;BMP280;65640;43.154;25.658;2023-04-01T22:02:26;99547.75;;;10.49
76713;BMP280;65640;43.154;25.658;2023-04-01T22:10:37;99561.03;;;10.66
76713;BMP280;65640;43.154;25.658;2023-04-01T22:13:20;99562.09;;;10.65
76713;BMP280;65640;43.154;25.658;2023-04-01T22:15:59;99563.81;;;10.70
76713;BMP280;65640;43.154;25.658;2023-04-01T22:18:38;99568.50;;;10.73
76713;BMP280;65640;43.154;25.658;2023-04-01T22:21:30;99567.34;;;10.79
76713;BMP280;65640;43.154;25.658;2023-04-01T22:24:07;99577.25;;;10.82
76713;BMP280;65640;43.154;25.658;2023-04-01T22:26:44;99580.00;;;10.85
76713;BMP280;65640;43.154;25.658;2023-04-01T22:29:20;99582.25;;;10.92
76713;BMP280;65640;43.154;25.658;2023-04-01T22:31:59;99582.47;;;10.96
76713;BMP280;65640;43.154;25.658;2023-04-01T22:34:47;99583.03;;;10.93
76713;BMP280;65640;43.154;25.658;2023-04-01T22:42:44;99587.97;;;10.94
76713;BMP280;65640;43.154;25.658;2023-04-01T22:47:56;99587.59;;;11.01
76713;BMP280;65640;43.154;25.658;2023-04-01T22:50:34;99582.34;;;11.01
76713;BMP280;65640;43.154;25.658;2023-04-01T22:55:51;99577.13;;;11.01
76713;BMP280;65640;43.154;25.658;2023-04-01T22:58:49;99581.78;;;11.04
76713;BMP280;65640;43.154;25.658;2023-04-01T23:01:20;99575.47;;;11.05
76713;BMP280;65640;43.154;25.658;2023-04-01T23:03:49;99573.78;;;11.09
76713;BMP280;65640;43.154;25.658;2023-04-01T23:06:39;99571.09;;;11.14
76713;BMP280;65640;43.154;25.658;2023-04-01T23:11:42;99566.72;;;11.23
76713;BMP280;65640;43.154;25.658;2023-04-01T23:17:09;99555.06;;;11.29
76713;BMP280;65640;43.154;25.658;2023-04-01T23:30:48;99559.88;;;11.36
76713;BMP280;65640;43.154;25.658;2023-04-01T23:33:21;99573.28;;;11.34
76713;BMP280;65640;43.154;25.658;2023-04-01T23:35:53;99567.94;;;11.39
76713;BMP280;65640;43.154;25.658;2023-04-01T23:38:25;99570.53;;;11.39
76713;BMP280;65640;43.154;25.658;2023-04-01T23:40:53;99575.63;;;11.36
76713;BMP280;65640;43.154;25.658;2023-04-01T23:43:25;99566.56;;;11.42
76713;BMP280;65640;43.154;25.658;2023-04-01T23:45:54;99569.38;;;11.45
76713;BMP280;65640;43.154;25.658;2023-04-01T23:48:25;99571.69;;;11.47
76713;BMP280;65640;43.154;25.658;2023-04-01T23:50:53;99556.28;;;11.45
76713;BMP280;65640;43.154;25.658;2023-04-01T23:53:23;99555.19;;;11.46
76713;BMP280;65640;43.154;25.658;2023-04-01T23:55:51;99560.66;;;11.50
